createdAt,value
2023-04-20T15:15:03.628Z,48.1054
2023-04-20T15:16:06.257Z,49.3455
2023-04-20T15:17:09.074Z,49.1007
2023-04-20T15:18:11.491Z,50.0135
2023-04-20T15:19:14.122Z,47.8693
2023-04-20T15:20:16.731Z,52.9267
2023-04-20T15:21:19.362Z,58.3768
2023-04-20T15:22:21.958Z,63.8004
2023-04-20T15:23:24.606Z,66.1105
2023-04-20T15:24:27.201Z,62.4094
2023-04-20T15:25:29.856Z,60.8824
2023-04-20T15:26:32.447Z,59.6759
2023-04-20T15:27:35.101Z,56.9776
2023-04-20T15:28:37.702Z,56.7911
2023-04-20T15:29:40.346Z,53.2236
2023-04-20T15:30:42.940Z,52.6308
2023-04-20T15:31:45.654Z,51.8065
2023-04-20T15:32:48.862Z,53.2414
2023-04-20T15:33:50.824Z,53.6370
2023-04-20T15:34:53.440Z,54.7806
2023-04-20T15:35:56.059Z,53.1486
2023-04-20T15:36:58.653Z,51.8158
2023-04-20T15:38:01.304Z,49.9911
2023-04-20T15:39:03.911Z,52.2915
2023-04-20T15:40:06.550Z,52.1482
2023-04-20T15:41:09.528Z,52.9192
2023-04-20T15:42:11.773Z,59.1348
2023-04-20T15:43:14.371Z,59.5783
2023-04-20T15:44:17.412Z,61.1340
2023-04-20T15:45:19.605Z,56.9469
2023-04-20T15:46:22.356Z,56.5993
2023-04-20T15:47:24.901Z,54.9755
2023-04-20T15:48:27.558Z,53.2423
2023-04-20T15:49:30.965Z,54.6766
2023-04-20T15:50:32.728Z,54.5382
2023-04-20T15:51:35.325Z,49.4905
2023-04-20T15:52:37.997Z,48.1714
2023-04-20T15:53:40.593Z,53.4800
2023-04-20T15:54:43.185Z,53.3014
2023-04-20T15:55:45.776Z,50.8080
2023-04-20T15:56:48.414Z,49.0398
2023-04-20T15:57:51.002Z,48.6770
2023-04-20T15:58:53.641Z,51.0931
2023-04-20T15:59:56.246Z,50.6386
2023-04-20T16:00:58.895Z,51.8235
2023-04-20T16:02:01.563Z,51.8715
2023-04-20T16:03:04.210Z,52.6253
2023-04-20T16:04:06.943Z,50.4901
2023-04-20T16:05:09.730Z,48.0762
2023-04-20T16:06:11.909Z,49.6382
2023-04-20T16:07:14.557Z,49.7972
2023-04-20T16:08:17.161Z,54.1812
2023-04-20T16:09:20.797Z,52.1077
2023-04-20T16:10:22.395Z,57.6260
2023-04-20T16:11:25.010Z,53.5011
2023-04-20T16:12:27.615Z,57.6320
2023-04-20T16:13:30.245Z,57.4760
2023-04-20T16:14:32.871Z,58.6617
2023-04-20T16:15:35.517Z,56.5227
2023-04-20T16:16:38.080Z,54.1534
2023-04-20T16:17:40.749Z,56.4768
2023-04-20T16:18:43.313Z,52.2481
2023-04-20T16:19:45.952Z,52.8127
2023-04-20T16:20:48.532Z,52.0199
2023-04-20T16:21:51.167Z,50.9852
2023-04-20T16:22:53.839Z,55.8693
2023-04-20T16:23:56.391Z,55.8536
2023-04-20T16:24:58.977Z,56.3695
2023-04-20T16:26:01.636Z,53.7979
2023-04-20T16:27:04.214Z,57.2598
2023-04-20T16:28:06.857Z,56.7681
2023-04-20T16:29:09.440Z,56.4287
2023-04-20T16:30:12.076Z,54.4971
2023-04-20T16:31:14.698Z,53.9694
2023-04-20T16:32:17.573Z,51.1002
2023-04-20T16:33:19.885Z,55.4622
2023-04-20T16:34:22.519Z,55.2956
2023-04-20T16:35:25.115Z,52.1420
2023-04-20T16:36:27.751Z,55.2855
2023-04-20T17:42:15.295Z,50.6660
2023-04-20T17:43:17.920Z,56.6570
2023-04-20T17:44:20.735Z,56.7481
2023-04-20T17:45:23.153Z,56.3217
2023-04-20T17:46:25.776Z,60.3020
2023-04-20T17:47:28.430Z,61.1775
2023-04-20T17:48:30.967Z,62.5911
2023-04-20T17:49:33.618Z,62.5768
2023-04-20T17:50:36.220Z,64.0352
2023-04-20T17:51:38.845Z,60.4699
2023-04-20T17:52:41.448Z,62.2716
2023-04-20T17:53:44.316Z,68.0403
2023-04-20T17:54:46.718Z,68.4098
2023-04-20T17:55:49.329Z,70.6633
2023-04-20T17:56:51.914Z,69.2861
2023-04-20T17:57:54.558Z,68.7246
2023-04-20T17:58:57.159Z,87.8826
2023-04-20T17:59:59.796Z,104.8682
2023-04-20T18:01:02.415Z,92.4818
2023-04-20T18:02:05.189Z,85.8121
2023-04-20T18:03:07.816Z,74.1025
2023-04-20T18:04:10.991Z,73.3638
2023-04-20T18:05:12.855Z,73.2182
2023-04-20T18:06:15.501Z,62.1135
2023-04-20T18:07:18.126Z,62.8364
2023-04-20T18:08:20.738Z,61.6366
2023-04-20T18:09:23.325Z,56.7230
2023-04-20T18:10:25.966Z,59.4215
